This is the latest recevied weather packets stored in our database for station/object WD7CGF. If no packets are shown the sender has not sent any weather packets the latest 10 day(s).
| Time | Temp. | Humidity | Pressure | Rain* | Wind** | Luminosity | Snow |
|---|---|---|---|---|---|---|---|
| 1787392725 | 21.11° C | 62% | 1011.8 hPa | 0 mm | - | - | - |
| 1787392123 | 21.67° C | 61% | 1011.8 hPa | 0 mm | - | - | - |
| 1787391515 | 21.67° C | 61% | 1011.6 hPa | 0 mm | - | - | - |
| 1787390928 | 22.22° C | 60% | 1011.9 hPa | 0 mm | - | - | - |
| 1787390319 | 22.22° C | 59% | 1011.9 hPa | 0 mm | - | - | - |
| 1787389713 | 22.22° C | 59% | 1011.7 hPa | 0 mm | - | - | - |
| 1787389126 | 22.78° C | 59% | 1011.9 hPa | 0 mm | - | - | - |
| 1787388519 | 23.33° C | 55% | 1011.9 hPa | 0 mm | - | - | - |
| 1787387914 | 23.33° C | 54% | 1011.9 hPa | 0 mm | - | - | - |
| 1787387328 | 23.33° C | 54% | 1012.3 hPa | 0 mm | - | - | - |
| 1787386721 | 23.89° C | 53% | 1012.3 hPa | 0 mm | - | - | - |
| 1787386115 | 23.89° C | 53% | 1012 hPa | 0 mm | - | - | - |
| 1787385527 | 23.89° C | 54% | 1012.2 hPa | 0 mm | - | - | - |
| 1787384918 | 23.89° C | 54% | 1012.2 hPa | 0 mm | - | - | - |
| 1787384331 | 23.89° C | 54% | 1012.1 hPa | 0 mm | - | - | - |
| 1787383725 | 23.89° C | 53% | 1012.1 hPa | 0 mm | - | - | - |
| 1787383122 | 23.89° C | 53% | 1012.1 hPa | 0 mm | - | - | - |
| 1787382516 | 24.44° C | 53% | 1012 hPa | 0 mm | - | - | - |
| 1787381928 | 24.44° C | 52% | 1012 hPa | 0 mm | - | - | - |
| 1787381321 | 25° C | 50% | 1012 hPa | 0 mm | - | - | - |
| 1787380717 | 25° C | 50% | 1012.1 hPa | 0 mm | - | - | - |
| 1787380112 | 25° C | 51% | 1012 hPa | 0 mm | - | - | - |
| 1787379525 | 24.44° C | 52% | 1012 hPa | 0 mm | - | - | - |
| 1787378919 | 23.89° C | 54% | 1012.4 hPa | 0 mm | - | - | - |
| 1787378316 | 24.44° C | 55% | 1012 hPa | 0 mm | - | - | - |
* Rain latest hour (hover to see other rain measurements)
** Current wind speed in m/s (hover to see current wind gust speed)